Time;durP1;ratioP1;P1;durP2;ratioP2;P2;SDS_P1;SDS_P2;PMS_P1;PMS_P2;Temp;Humidity;BMP_temperature;BMP_pressure;BME280_temperature;BME280_humidity;BME280_pressure;Samples;Min_cycle;Max_cycle;Signal;HPM_P1;HPM_P2
2022/09/27 00:03:40;;;;;;;7.3;10.8;;;;;;;8.6;88.7;97560;;;;
2022/09/27 00:13:40;;;;;;;7.6;11.3;;;;;;;8.6;88.5;97550;;;;
2022/09/27 00:23:40;;;;;;;7.6;11.3;;;;;;;8.5;88.4;97540;;;;
2022/09/27 00:34:40;;;;;;;7.6;11.3;;;;;;;8.4;88.4;97530;;;;
2022/09/27 00:44:40;;;;;;;5.5;7.8;;;;;;;8.4;88.7;97520;;;;
2022/09/27 00:54:40;;;;;;;5.5;7.8;;;;;;;8.2;88.8;97510;;;;
2022/09/27 01:05:40;;;;;;;5.5;7.8;;;;;;;8.2;89.3;97490;;;;
2022/09/27 01:15:40;;;;;;;7.1;9.4;;;;;;;8.2;89.5;97480;;;;
2022/09/27 01:26:40;;;;;;;7.1;9.4;;;;;;;8.2;89;97470;;;;
2022/09/27 01:36:40;;;;;;;7.1;9.4;;;;;;;8.2;88.6;97470;;;;
2022/09/27 01:47:40;;;;;;;8;11.6;;;;;;;8.1;88.3;97450;;;;
2022/09/27 01:58:40;;;;;;;8;11.6;;;;;;;7.9;88.4;97440;;;;
2022/09/27 02:09:40;;;;;;;8;11.6;;;;;;;7.9;88.1;97430;;;;
2022/09/27 02:19:41;;;;;;;7.4;10.1;;;;;;;7.7;87.6;97420;;;;
2022/09/27 02:29:40;;;;;;;7.4;10.1;;;;;;;7.5;87.1;97410;;;;
2022/09/27 02:40:40;;;;;;;7.4;10.1;;;;;;;7.3;87.1;97410;;;;
2022/09/27 02:50:40;;;;;;;6.9;9.5;;;;;;;7.1;87.3;97400;;;;
2022/09/27 03:00:40;;;;;;;6.9;9.5;;;;;;;6.9;87.4;97380;;;;
2022/09/27 03:10:41;;;;;;;6.9;9.5;;;;;;;6.7;87.2;97390;;;;
2022/09/27 03:21:40;;;;;;;5.8;9.4;;;;;;;6.7;87.8;97400;;;;
2022/09/27 03:31:40;;;;;;;5.8;9.4;;;;;;;6.6;88.6;97380;;;;
2022/09/27 03:42:40;;;;;;;7.5;11.1;;;;;;;6.5;89.2;97380;;;;
2022/09/27 03:52:41;;;;;;;7.5;11.1;;;;;;;6.4;89.6;97380;;;;
2022/09/27 04:02:40;;;;;;;7.5;11.1;;;;;;;6.4;89.2;97360;;;;
2022/09/27 04:12:40;;;;;;;6.4;11;;;;;;;6.5;88.8;97360;;;;
2022/09/27 04:23:40;;;;;;;6.4;11;;;;;;;6.3;88.4;97340;;;;
2022/09/27 04:33:40;;;;;;;6.4;11;;;;;;;6.1;88.4;97340;;;;
2022/09/27 04:44:40;;;;;;;5.8;9.6;;;;;;;6.2;88.5;97350;;;;
2022/09/27 04:54:41;;;;;;;5.8;9.6;;;;;;;6.4;88.4;97340;;;;
2022/09/27 05:05:40;;;;;;;5.8;9.6;;;;;;;6.5;88.4;97320;;;;
2022/09/27 05:16:40;;;;;;;6.6;8.9;;;;;;;6.7;88.2;97320;;;;
2022/09/27 05:26:40;;;;;;;6.6;8.9;;;;;;;6.8;88;97320;;;;
2022/09/27 05:37:40;;;;;;;6.6;8.9;;;;;;;7;88.3;97310;;;;
2022/09/27 05:48:40;;;;;;;6.6;10.3;;;;;;;7.3;88.3;97300;;;;
2022/09/27 05:58:40;;;;;;;6.6;10.3;;;;;;;7.3;88.3;97290;;;;
2022/09/27 06:08:40;;;;;;;6.6;10.3;;;;;;;7.4;88.3;97290;;;;
2022/09/27 06:19:40;;;;;;;7.4;9.9;;;;;;;8.3;88.1;97310;;;;
2022/09/27 06:30:40;;;;;;;7.4;9.9;;;;;;;8.6;88.2;97310;;;;
2022/09/27 06:40:44;;;;;;;7.4;9.9;;;;;;;9.2;88.3;97300;;;;
2022/09/27 06:51:41;;;;;;;9.1;12.5;;;;;;;9.8;87.8;97300;;;;
2022/09/27 07:01:40;;;;;;;9.1;12.5;;;;;;;10.2;86.3;97290;;;;
2022/09/27 07:12:40;;;;;;;11.3;14.6;;;;;;;10.4;86.2;97290;;;;
2022/09/27 07:22:41;;;;;;;11.3;14.6;;;;;;;11.2;86;97290;;;;
2022/09/27 07:33:40;;;;;;;11.3;14.6;;;;;;;11.4;85.1;97280;;;;
2022/09/27 07:44:40;;;;;;;10.7;13.3;;;;;;;12;85.3;97280;;;;
2022/09/27 07:55:41;;;;;;;10.7;13.3;;;;;;;12.8;84.3;97280;;;;
2022/09/27 08:05:40;;;;;;;10.7;13.3;;;;;;;13.2;82.2;97270;;;;
2022/09/27 08:15:40;;;;;;;10.8;13.7;;;;;;;13.5;82;97250;;;;
2022/09/27 08:26:40;;;;;;;10.8;13.7;;;;;;;13.9;82;97260;;;;
2022/09/27 08:36:40;;;;;;;10.8;13.7;;;;;;;14.3;81.5;97250;;;;
2022/09/27 08:47:40;;;;;;;9.8;13.5;;;;;;;14.5;80.6;97240;;;;
2022/09/27 08:57:40;;;;;;;9.8;13.5;;;;;;;15.1;79.5;97240;;;;
2022/09/27 09:08:40;;;;;;;9.8;13.5;;;;;;;15.5;77.2;97230;;;;
2022/09/27 09:19:40;;;;;;;12.9;18.8;;;;;;;16;77.3;97210;;;;
2022/09/27 09:29:40;;;;;;;12.9;18.8;;;;;;;16.3;75.6;97200;;;;
2022/09/27 09:39:40;;;;;;;12.9;18.8;;;;;;;16.6;74.9;97180;;;;
2022/09/27 09:49:40;;;;;;;10.9;16.6;;;;;;;16.9;75;97170;;;;
2022/09/27 09:59:41;;;;;;;10.9;16.6;;;;;;;17.2;73.4;97140;;;;
2022/09/27 10:10:40;;;;;;;10.9;16.6;;;;;;;17.6;71.6;97130;;;;
2022/09/27 10:21:41;;;;;;;8.3;11.4;;;;;;;18;71;97110;;;;
2022/09/27 10:31:44;;;;;;;8.3;11.4;;;;;;;17.8;69.2;97100;;;;
2022/09/27 10:41:40;;;;;;;8.3;11.4;;;;;;;18.4;69.8;97090;;;;
2022/09/27 10:51:40;;;;;;;5.9;8.8;;;;;;;18.7;69.5;97080;;;;
2022/09/27 11:02:41;;;;;;;5.9;8.8;;;;;;;19.1;64.1;97070;;;;
2022/09/27 11:13:41;;;;;;;3.7;6.3;;;;;;;19.6;62.4;97060;;;;
2022/09/27 11:23:41;;;;;;;3.7;6.3;;;;;;;19.3;60.9;97060;;;;
2022/09/27 11:34:42;;;;;;;3.7;6.3;;;;;;;19.7;61.7;97040;;;;
2022/09/27 11:44:40;;;;;;;2.8;5.7;;;;;;;19.5;60.9;97030;;;;
2022/09/27 11:55:40;;;;;;;2.8;5.7;;;;;;;19.7;58.2;97020;;;;
2022/09/27 12:06:40;;;;;;;2.8;5.7;;;;;;;20.3;56.8;97010;;;;
2022/09/27 12:17:41;;;;;;;2.4;4.5;;;;;;;20.4;57.8;97000;;;;
2022/09/27 12:27:40;;;;;;;2.4;4.5;;;;;;;19.9;59.5;96990;;;;
2022/09/27 12:38:40;;;;;;;2.4;4.5;;;;;;;19.7;60.6;96980;;;;
2022/09/27 12:48:40;;;;;;;3.1;5.6;;;;;;;20;61.1;96970;;;;
2022/09/27 12:58:40;;;;;;;3.1;5.6;;;;;;;20.4;60.3;96960;;;;
2022/09/27 13:09:40;;;;;;;3.1;5.6;;;;;;;20.4;60.8;96950;;;;
2022/09/27 13:20:43;;;;;;;4;6.5;;;;;;;20.6;60;96940;;;;
2022/09/27 13:31:40;;;;;;;4;6.5;;;;;;;20.5;61.9;96950;;;;
2022/09/27 13:42:41;;;;;;;2.9;5.3;;;;;;;19.8;61.4;96950;;;;
2022/09/27 13:53:45;;;;;;;2.9;5.3;;;;;;;19.7;61.9;96950;;;;
2022/09/27 14:03:42;;;;;;;2.9;5.3;;;;;;;19.7;63.3;96940;;;;
2022/09/27 14:14:41;;;;;;;3;5.9;;;;;;;19.7;62.3;96940;;;;
2022/09/27 14:25:40;;;;;;;3;5.9;;;;;;;19.3;62.8;96940;;;;
2022/09/27 14:37:47;;;;;;;3;5.9;;;;;;;19;64.4;96940;;;;
2022/09/27 14:46:40;;;;;;;3.2;6.9;;;;;;;18.6;65.9;96950;;;;
2022/09/27 14:57:42;;;;;;;3.2;6.9;;;;;;;18.3;67.1;96960;;;;
2022/09/27 15:08:41;;;;;;;3.2;6.9;;;;;;;17.7;69.4;96990;;;;
2022/09/27 15:19:40;;;;;;;5.3;9.2;;;;;;;16.3;74.8;97010;;;;
2022/09/27 15:29:40;;;;;;;5.3;9.2;;;;;;;14.7;77.5;97040;;;;
2022/09/27 15:39:41;;;;;;;5.3;9.2;;;;;;;14;80.3;97030;;;;
2022/09/27 15:50:41;;;;;;;3.1;5.5;;;;;;;13.5;81.3;97060;;;;
2022/09/27 16:01:40;;;;;;;3.1;5.5;;;;;;;13.3;81.6;97070;;;;
2022/09/27 16:11:40;;;;;;;3.1;5.5;;;;;;;13;81.7;97060;;;;
2022/09/27 16:22:40;;;;;;;3.8;5.8;;;;;;;12.7;82.4;97060;;;;
2022/09/27 16:32:41;;;;;;;3.8;5.8;;;;;;;12.5;83;97080;;;;
2022/09/27 16:43:41;;;;;;;7.1;10.7;;;;;;;12.5;82.4;97090;;;;
2022/09/27 16:53:41;;;;;;;7.1;10.7;;;;;;;12.4;82.9;97110;;;;
2022/09/27 17:04:41;;;;;;;7.1;10.7;;;;;;;12.4;82.8;97110;;;;
2022/09/27 17:14:40;;;;;;;5.7;9.3;;;;;;;12.2;83.5;97100;;;;
2022/09/27 17:24:40;;;;;;;5.7;9.3;;;;;;;12.2;83.4;97110;;;;
2022/09/27 17:34:43;;;;;;;5.7;9.3;;;;;;;12;83.8;97110;;;;
2022/09/27 17:45:40;;;;;;;5.8;10.1;;;;;;;12;83.9;97110;;;;
2022/09/27 17:56:40;;;;;;;5.8;10.1;;;;;;;12;84.1;97120;;;;
2022/09/27 18:07:41;;;;;;;5.8;10.1;;;;;;;12;84.1;97130;;;;
2022/09/27 18:17:42;;;;;;;5.8;8.9;;;;;;;12.1;83.9;97140;;;;
2022/09/27 18:28:40;;;;;;;5.8;8.9;;;;;;;12.2;83.3;97150;;;;
2022/09/27 18:38:41;;;;;;;5.8;8.9;;;;;;;12.2;83;97160;;;;
2022/09/27 18:48:41;;;;;;;8;10.1;;;;;;;12.2;83.2;97170;;;;
2022/09/27 18:58:41;;;;;;;8;10.1;;;;;;;12.1;84;97170;;;;
2022/09/27 19:09:41;;;;;;;8;10.1;;;;;;;12.1;83.9;97170;;;;
2022/09/27 19:20:41;;;;;;;9.4;13.5;;;;;;;11.8;85.3;97170;;;;
2022/09/27 19:30:41;;;;;;;9.4;13.5;;;;;;;11.9;85.2;97170;;;;
2022/09/27 19:41:41;;;;;;;8.9;12.5;;;;;;;11.9;84.9;97180;;;;
2022/09/27 19:52:41;;;;;;;8.9;12.5;;;;;;;11.9;84.7;97170;;;;
2022/09/27 20:02:42;;;;;;;8.9;12.5;;;;;;;12;84.5;97170;;;;
2022/09/27 20:13:41;;;;;;;8.3;14.6;;;;;;;12;84.6;97170;;;;
2022/09/27 20:24:41;;;;;;;8.3;14.6;;;;;;;12;84.5;97170;;;;
2022/09/27 20:35:41;;;;;;;8.3;14.6;;;;;;;11.9;85;97170;;;;
2022/09/27 20:45:42;;;;;;;5.5;8.3;;;;;;;11.8;85.4;97170;;;;
2022/09/27 20:55:41;;;;;;;5.5;8.3;;;;;;;11.8;85.1;97170;;;;
2022/09/27 21:06:41;;;;;;;5.5;8.3;;;;;;;12;84.9;97180;;;;
2022/09/27 21:16:41;;;;;;;6.8;9.5;;;;;;;11.9;85.1;97180;;;;
2022/09/27 21:27:41;;;;;;;6.8;9.5;;;;;;;11.6;86.3;97180;;;;
2022/09/27 21:38:41;;;;;;;6.8;9.5;;;;;;;11.6;86.8;97170;;;;
2022/09/27 21:49:41;;;;;;;6.5;10.2;;;;;;;11.6;86.4;97160;;;;
2022/09/27 22:00:41;;;;;;;6.5;10.2;;;;;;;11.6;86.1;97150;;;;
2022/09/27 22:10:41;;;;;;;6.5;10.2;;;;;;;11.4;86.4;97150;;;;
2022/09/27 22:20:41;;;;;;;4.9;9.6;;;;;;;11.4;86.3;97160;;;;
2022/09/27 22:31:41;;;;;;;4.9;9.6;;;;;;;11.2;86.8;97170;;;;
2022/09/27 22:41:41;;;;;;;4.3;7;;;;;;;11.2;86.9;97170;;;;
2022/09/27 22:51:41;;;;;;;4.3;7;;;;;;;11.4;86.5;97170;;;;
2022/09/27 23:02:41;;;;;;;4.3;7;;;;;;;11.4;86.1;97170;;;;
2022/09/27 23:12:41;;;;;;;3.5;6.9;;;;;;;11.4;85.8;97170;;;;
2022/09/27 23:23:41;;;;;;;3.5;6.9;;;;;;;11.3;86;97160;;;;
2022/09/27 23:33:41;;;;;;;3.5;6.9;;;;;;;11.4;85.9;97170;;;;
2022/09/27 23:44:42;;;;;;;3.9;6.5;;;;;;;11.5;85.5;97180;;;;
2022/09/27 23:55:41;;;;;;;3.9;6.5;;;;;;;11.4;85.2;97180;;;;
